Natick, Massachusetts
Current Conditions -  °F | °C
As of 1:53 PM on Friday 24 Oct 2014 (Local Time) from KOWD Reporting Station
Overcast Overcast  
Wind Chill: 53°   Ceiling: 2000
Heat Index: 53°   Visibility: 10mi
Dew Point: 46°   Wind: 7mph
Humidity: 77%   Direction: 320°NW
Pressure: 29.68"   Gusts: NA
Location:  42.28°N, 71.35°W
Report Text: KOWD 241753Z 32006KT 10SM OVC020 12/08 A2968 RMK AO2 SLP049 T01170078 10122 20100 58008
Loading
Personal Weather Stations






























Interactive Weather Map
Tropical Storm Tracking
New forecast layout! Learn more

10-Day Weather Forecast

Advertisements
Track Severe Weather on mobile